createdAt,value
2023-02-23T00:01:57.765Z,45.20
2023-02-23T00:04:24.663Z,40.10
2023-02-23T00:06:52.169Z,42.57
2023-02-23T00:09:24.952Z,42.33
2023-02-23T00:11:55.124Z,43.23
2023-02-23T00:14:24.653Z,41.60
2023-02-23T00:16:51.186Z,45.37
2023-02-23T00:19:17.573Z,44.30
2023-02-23T00:21:43.926Z,47.50
2023-02-23T00:24:11.462Z,43.20
2023-02-23T00:26:39.031Z,41.07
2023-02-23T00:29:06.925Z,42.57
2023-02-23T00:31:34.084Z,46.00
2023-02-23T00:34:01.945Z,41.00
2023-02-23T00:36:33.251Z,44.07
2023-02-23T00:39:00.861Z,41.33
2023-02-23T00:41:30.560Z,42.37
2023-02-23T00:43:57.890Z,44.40
2023-02-23T00:46:27.031Z,45.13
2023-02-23T00:48:55.371Z,44.77
2023-02-23T00:51:22.731Z,43.33
2023-02-23T00:53:49.472Z,45.37
2023-02-23T00:56:16.260Z,43.13
2023-02-23T00:58:42.707Z,46.37
2023-02-23T01:01:10.190Z,40.87
2023-02-23T01:03:37.432Z,47.50
2023-02-23T01:06:06.192Z,46.63
2023-02-23T01:08:34.102Z,47.93
2023-02-23T01:11:05.704Z,43.50
2023-02-23T01:13:32.264Z,44.93
2023-02-23T01:15:58.603Z,48.07
2023-02-23T01:18:25.026Z,48.00
2023-02-23T01:20:51.399Z,45.07
2023-02-23T01:23:19.282Z,45.10
2023-02-23T01:25:46.588Z,47.93
2023-02-23T01:28:12.834Z,47.23
2023-02-23T01:30:39.893Z,43.47
2023-02-23T01:33:06.310Z,44.37
2023-02-23T01:35:33.236Z,46.97
2023-02-23T01:37:59.733Z,45.10
2023-02-23T01:40:29.797Z,44.40
2023-02-23T01:42:58.305Z,45.30
2023-02-23T01:45:30.883Z,45.93
2023-02-23T01:48:01.591Z,48.00
2023-02-23T01:50:28.988Z,46.30
2023-02-23T01:52:55.437Z,48.97
2023-02-23T01:55:24.494Z,49.57
2023-02-23T01:57:54.273Z,46.33
2023-02-23T02:00:20.748Z,46.70
2023-02-23T02:02:48.788Z,49.63
2023-02-23T02:05:18.107Z,49.23
2023-02-23T02:07:47.136Z,48.10
2023-02-23T02:10:13.478Z,48.03
2023-02-23T02:12:44.999Z,49.40
2023-02-23T02:15:17.227Z,47.07
2023-02-23T02:18:03.280Z,47.10
2023-02-23T02:20:40.802Z,47.30
2023-02-23T02:23:10.066Z,47.53
2023-02-23T02:25:44.889Z,50.80
2023-02-23T02:28:27.137Z,49.77
2023-02-23T02:30:56.480Z,49.53
2023-02-23T02:33:38.161Z,51.07
2023-02-23T02:36:10.650Z,53.83
2023-02-23T02:38:55.622Z,54.17
2023-02-23T02:41:35.599Z,55.57
2023-02-23T02:44:27.316Z,56.73
2023-02-23T02:46:58.131Z,55.90
2023-02-23T02:49:32.601Z,55.70
2023-02-23T02:52:01.512Z,55.57
2023-02-23T02:54:30.706Z,58.23
2023-02-23T02:56:58.186Z,58.67
2023-02-23T02:59:43.099Z,61.30
2023-02-23T03:02:34.959Z,59.60
2023-02-23T03:05:19.883Z,59.07
2023-02-23T03:08:34.297Z,55.47
2023-02-23T03:11:26.056Z,60.47
2023-02-23T03:14:18.488Z,57.57
2023-02-23T03:17:15.874Z,62.40
2023-02-23T03:20:11.971Z,60.37
2023-02-23T03:23:00.345Z,59.20
2023-02-23T03:25:51.323Z,58.40
2023-02-23T03:28:41.653Z,60.30
2023-02-23T03:31:32.370Z,61.47
2023-02-23T03:34:33.212Z,61.37
2023-02-23T03:37:36.172Z,61.80
2023-02-23T03:40:24.627Z,65.80
2023-02-23T03:43:10.187Z,60.53
2023-02-23T03:45:55.632Z,62.60
2023-02-23T03:48:42.584Z,62.17
2023-02-23T03:51:30.639Z,66.90
2023-02-23T03:54:22.728Z,68.13
2023-02-23T03:57:09.154Z,65.83
2023-02-23T03:59:57.992Z,64.57
2023-02-23T04:02:43.563Z,65.60
2023-02-23T04:05:30.830Z,67.23
2023-02-23T04:08:18.664Z,64.43
2023-02-23T04:11:08.673Z,62.23
2023-02-23T04:13:36.339Z,67.37
2023-02-23T04:16:07.600Z,65.20
2023-02-23T04:18:34.886Z,63.77
2023-02-23T04:21:01.725Z,65.43
2023-02-23T04:23:28.174Z,66.87
2023-02-23T04:25:54.975Z,64.87
2023-02-23T04:28:21.812Z,66.90
2023-02-23T04:30:48.126Z,68.00
2023-02-23T04:33:14.713Z,66.57
2023-02-23T04:35:41.624Z,65.73
2023-02-23T04:38:07.958Z,65.87
2023-02-23T04:40:34.495Z,64.80
2023-02-23T04:43:00.738Z,67.60
2023-02-23T04:45:27.097Z,65.30
2023-02-23T04:47:53.843Z,67.40
2023-02-23T04:50:20.519Z,65.03
2023-02-23T04:52:47.576Z,61.60
2023-02-23T04:55:18.278Z,65.00
2023-02-23T04:57:44.661Z,68.00
2023-02-23T05:00:11.334Z,76.27
2023-02-23T05:02:38.490Z,65.27
2023-02-23T05:05:05.145Z,61.43
2023-02-23T05:07:31.448Z,64.37
2023-02-23T05:09:57.691Z,65.60
2023-02-23T05:12:24.036Z,62.57
2023-02-23T05:14:50.453Z,64.03
2023-02-23T05:17:16.973Z,70.93
2023-02-23T05:19:43.248Z,69.10
2023-02-23T05:22:12.469Z,67.03
2023-02-23T05:24:39.729Z,67.63
2023-02-23T05:27:06.960Z,72.17
2023-02-23T05:29:33.379Z,66.23
2023-02-23T05:31:59.816Z,66.70
2023-02-23T05:34:26.281Z,69.33
2023-02-23T05:36:54.128Z,74.37
2023-02-23T05:39:20.999Z,69.97
2023-02-23T05:41:47.565Z,64.13
2023-02-23T05:44:13.819Z,62.57
2023-02-23T05:46:40.197Z,68.53
2023-02-23T05:49:06.421Z,67.20
2023-02-23T05:51:34.073Z,67.13
2023-02-23T05:54:00.588Z,63.50
2023-02-23T05:56:26.901Z,66.43
2023-02-23T05:58:54.770Z,64.00
2023-02-23T06:01:21.598Z,62.73
2023-02-23T06:03:48.248Z,62.03
2023-02-23T06:06:15.170Z,64.10
2023-02-23T06:08:42.002Z,64.37
2023-02-23T06:11:08.471Z,59.33
2023-02-23T06:13:34.808Z,58.93
2023-02-23T06:16:01.302Z,59.43
2023-02-23T06:18:28.116Z,59.47
2023-02-23T06:20:54.442Z,62.23
2023-02-23T06:23:20.834Z,59.07
2023-02-23T06:25:47.480Z,55.17
2023-02-23T06:28:14.206Z,57.17
2023-02-23T06:30:40.723Z,64.40
2023-02-23T06:33:07.186Z,57.33
2023-02-23T06:35:34.046Z,57.93
2023-02-23T06:38:00.703Z,58.70
2023-02-23T06:40:27.618Z,58.77
2023-02-23T06:42:53.889Z,148.40
2023-02-23T06:45:20.370Z,63.40
2023-02-23T06:47:47.380Z,63.87
2023-02-23T06:50:14.518Z,61.27
2023-02-23T06:52:41.108Z,63.23
2023-02-23T06:55:07.884Z,62.93
2023-02-23T06:57:34.191Z,64.20
2023-02-23T07:00:01.759Z,65.63
2023-02-23T07:02:28.121Z,63.70
2023-02-23T07:04:54.344Z,62.90
2023-02-23T07:07:20.628Z,62.43
2023-02-23T07:09:46.915Z,61.60
2023-02-23T07:12:13.143Z,60.60
2023-02-23T07:14:39.466Z,60.37
2023-02-23T07:17:05.921Z,55.27
2023-02-23T07:19:32.281Z,58.60
2023-02-23T07:21:58.647Z,57.33
2023-02-23T07:24:24.915Z,55.90
2023-02-23T07:26:52.016Z,56.10
2023-02-23T07:29:18.791Z,58.20
2023-02-23T07:31:45.152Z,57.20
2023-02-23T07:34:11.505Z,53.17
2023-02-23T07:36:37.854Z,53.57
2023-02-23T07:39:04.797Z,53.07
2023-02-23T07:41:31.319Z,61.90
2023-02-23T07:43:58.294Z,56.40
2023-02-23T07:46:24.982Z,59.00
2023-02-23T07:48:51.272Z,50.90
2023-02-23T07:51:17.954Z,51.87
2023-02-23T07:53:44.388Z,54.67
2023-02-23T07:56:11.315Z,49.63
2023-02-23T07:58:38.472Z,48.43
2023-02-23T08:01:05.044Z,47.93
2023-02-23T08:03:31.528Z,46.30
2023-02-23T08:05:57.859Z,46.60
2023-02-23T08:08:24.305Z,47.33
2023-02-23T08:10:50.846Z,47.80
2023-02-23T08:13:17.175Z,47.13
2023-02-23T08:15:43.704Z,45.23
2023-02-23T08:18:10.399Z,46.50
2023-02-23T08:20:37.940Z,51.93
2023-02-23T08:23:04.204Z,45.77
2023-02-23T08:25:30.793Z,48.90
2023-02-23T08:27:59.529Z,43.37
2023-02-23T08:30:25.902Z,42.10
2023-02-23T08:32:52.219Z,45.83
2023-02-23T08:35:20.254Z,43.53
2023-02-23T08:37:46.518Z,45.23
2023-02-23T08:40:15.317Z,43.73
2023-02-23T08:42:42.009Z,44.30
2023-02-23T08:45:08.739Z,43.17
2023-02-23T08:47:36.092Z,45.80
2023-02-23T08:50:02.396Z,43.97
2023-02-23T08:52:28.889Z,45.57
2023-02-23T08:54:56.273Z,46.40
2023-02-23T08:57:22.687Z,55.07
2023-02-23T08:59:48.991Z,39.47
2023-02-23T09:02:15.305Z,41.80
2023-02-23T09:04:42.018Z,40.47
2023-02-23T09:07:09.196Z,40.27
2023-02-23T09:09:35.466Z,36.70
2023-02-23T09:12:01.804Z,39.33
2023-02-23T09:14:28.269Z,38.23
2023-02-23T09:16:54.542Z,41.50
2023-02-23T09:19:20.799Z,38.17
2023-02-23T09:21:47.140Z,35.53
2023-02-23T09:24:13.462Z,37.53
2023-02-23T09:26:45.630Z,36.30
2023-02-23T09:29:12.236Z,35.27
2023-02-23T09:31:38.950Z,33.63
2023-02-23T09:34:05.364Z,32.97
2023-02-23T09:36:31.881Z,32.23
2023-02-23T09:38:58.564Z,31.53
2023-02-23T09:41:34.122Z,31.33
2023-02-23T09:44:12.835Z,32.60
2023-02-23T09:46:39.132Z,33.53
2023-02-23T09:49:08.253Z,31.43
2023-02-23T09:51:38.485Z,35.00
2023-02-23T09:54:05.878Z,28.67
2023-02-23T09:56:39.874Z,28.03
2023-02-23T09:59:08.639Z,28.73
2023-02-23T10:01:42.003Z,31.00
2023-02-23T10:04:20.470Z,29.43
2023-02-23T10:06:59.157Z,30.57
2023-02-23T10:09:37.057Z,31.57
2023-02-23T10:12:09.938Z,31.63
2023-02-23T10:15:14.616Z,32.80
2023-02-23T10:17:50.001Z,33.83
2023-02-23T10:20:34.688Z,32.70
2023-02-23T10:23:11.940Z,31.00
2023-02-23T10:25:41.397Z,33.77
2023-02-23T10:28:11.503Z,30.33
2023-02-23T10:30:40.384Z,32.30
2023-02-23T10:33:09.678Z,30.27
2023-02-23T10:35:37.054Z,31.07
2023-02-23T10:38:03.769Z,29.63
2023-02-23T10:40:32.928Z,30.60
2023-02-23T10:43:02.854Z,30.50
2023-02-23T10:45:29.958Z,28.47
2023-02-23T10:48:05.377Z,31.70
2023-02-23T10:50:32.612Z,29.73
2023-02-23T10:53:12.662Z,28.57
2023-02-23T10:55:38.958Z,33.53
2023-02-23T10:58:10.434Z,28.77
2023-02-23T11:00:38.607Z,28.20
2023-02-23T11:03:18.680Z,27.33
2023-02-23T11:05:46.666Z,28.27
2023-02-23T11:08:21.123Z,36.10
2023-02-23T11:11:02.687Z,31.63
2023-02-23T11:13:49.196Z,25.30
2023-02-23T11:16:21.742Z,27.07
2023-02-23T11:18:59.007Z,25.43
2023-02-23T11:21:25.478Z,27.07
2023-02-23T11:23:53.348Z,26.67
2023-02-23T11:26:22.894Z,27.33
2023-02-23T11:28:52.379Z,26.37
2023-02-23T11:31:20.880Z,29.33
2023-02-23T11:33:50.002Z,32.93
2023-02-23T11:36:22.465Z,34.53
2023-02-23T11:38:56.358Z,35.87
2023-02-23T11:41:24.386Z,37.43
2023-02-23T11:43:52.150Z,35.83
2023-02-23T11:46:20.284Z,34.13
2023-02-23T11:49:05.069Z,37.13
2023-02-23T11:51:39.270Z,37.43
2023-02-23T11:54:07.120Z,54.47
2023-02-23T11:56:34.393Z,44.90
2023-02-23T11:59:08.288Z,39.43
2023-02-23T12:01:37.041Z,37.47
2023-02-23T12:04:03.702Z,31.97
2023-02-23T12:06:32.984Z,29.33
2023-02-23T12:09:23.190Z,31.53
2023-02-23T12:12:09.730Z,25.57
2023-02-23T12:14:39.369Z,30.30
2023-02-23T12:17:32.270Z,33.60
2023-02-23T12:20:02.144Z,36.00
2023-02-23T12:22:46.114Z,41.20
2023-02-23T12:25:30.913Z,45.63
2023-02-23T12:28:18.199Z,54.40
2023-02-23T12:30:54.814Z,52.00
2023-02-23T12:33:30.074Z,48.20
2023-02-23T12:36:03.847Z,51.23
2023-02-23T12:38:33.331Z,38.40
2023-02-23T12:41:05.640Z,34.83
2023-02-23T12:43:35.153Z,33.93
2023-02-23T12:46:01.493Z,41.83
2023-02-23T12:48:35.647Z,39.40
2023-02-23T12:51:04.206Z,43.97
2023-02-23T12:53:30.582Z,42.60
2023-02-23T12:56:18.526Z,42.10
2023-02-23T12:59:06.672Z,41.17
2023-02-23T13:01:42.922Z,39.57
2023-02-23T13:04:12.205Z,39.00
2023-02-23T13:06:43.904Z,38.57
2023-02-23T13:09:30.245Z,40.33
2023-02-23T13:11:56.565Z,42.87
2023-02-23T13:14:29.682Z,41.43
2023-02-23T13:17:02.610Z,42.83
2023-02-23T13:19:28.903Z,45.43
2023-02-23T13:21:55.160Z,44.77
2023-02-23T13:24:26.856Z,40.93
2023-02-23T13:27:11.927Z,40.87
2023-02-23T13:29:55.141Z,45.40
2023-02-23T13:32:23.917Z,43.70
2023-02-23T13:34:52.689Z,46.83
2023-02-23T13:37:20.816Z,45.47
2023-02-23T13:40:05.269Z,41.97
2023-02-23T13:42:52.686Z,44.53
2023-02-23T13:45:25.473Z,45.93
2023-02-23T13:48:04.644Z,40.37
2023-02-23T13:50:49.780Z,43.93
2023-02-23T13:53:33.651Z,42.57
2023-02-23T13:56:26.251Z,41.53
2023-02-23T13:58:58.547Z,36.23
2023-02-23T14:01:32.719Z,52.10
2023-02-23T14:04:00.584Z,40.57
2023-02-23T14:06:28.363Z,37.17
2023-02-23T14:09:00.892Z,37.33
2023-02-23T14:11:28.446Z,37.43
2023-02-23T14:13:59.576Z,37.83
2023-02-23T14:16:26.391Z,33.23
2023-02-23T14:18:54.601Z,33.60
2023-02-23T14:21:35.316Z,36.83
2023-02-23T14:24:21.470Z,36.70
2023-02-23T14:27:08.415Z,32.77
2023-02-23T14:29:41.385Z,33.93
2023-02-23T14:32:11.157Z,30.13
2023-02-23T14:34:43.716Z,31.43
2023-02-23T14:37:17.398Z,36.03
2023-02-23T14:39:43.721Z,34.47
2023-02-23T14:42:19.621Z,34.60
2023-02-23T14:44:51.242Z,29.57
2023-02-23T14:47:19.858Z,29.13
2023-02-23T14:49:51.334Z,28.30
2023-02-23T14:52:24.493Z,27.73
2023-02-23T14:54:51.144Z,28.27
2023-02-23T14:57:19.014Z,29.93
2023-02-23T14:59:46.188Z,28.90
2023-02-23T15:02:19.948Z,29.13
2023-02-23T15:04:46.333Z,29.30
2023-02-23T15:07:18.637Z,33.43
2023-02-23T15:09:46.158Z,34.30
2023-02-23T15:12:26.962Z,31.73
2023-02-23T15:14:55.549Z,30.00
2023-02-23T15:17:23.492Z,26.63
2023-02-23T15:19:56.160Z,28.03
2023-02-23T15:22:35.238Z,27.07
2023-02-23T15:25:03.263Z,28.00
2023-02-23T15:27:35.891Z,27.80
2023-02-23T15:30:22.797Z,26.97
2023-02-23T15:32:49.420Z,27.83
2023-02-23T15:35:15.886Z,27.07
2023-02-23T15:40:23.485Z,27.23
2023-02-23T15:42:52.047Z,28.33
2023-02-23T15:45:33.589Z,28.97
2023-02-23T15:48:05.035Z,30.03
2023-02-23T15:50:37.422Z,31.13
2023-02-23T15:53:13.594Z,40.77
2023-02-23T15:55:42.282Z,35.93
2023-02-23T15:58:21.142Z,34.17
2023-02-23T16:00:55.402Z,34.17
2023-02-23T16:03:30.535Z,34.57
2023-02-23T16:06:02.072Z,33.73
2023-02-23T16:08:29.650Z,33.83
2023-02-23T16:11:07.193Z,34.87
2023-02-23T16:13:33.617Z,35.80
2023-02-23T16:16:00.015Z,40.13
2023-02-23T16:18:32.657Z,41.00
2023-02-23T16:20:59.736Z,37.40
2023-02-23T16:23:45.492Z,39.40
2023-02-23T16:26:17.129Z,38.90
2023-02-23T16:28:44.845Z,35.00
2023-02-23T16:31:15.885Z,41.00
2023-02-23T16:33:42.246Z,44.20
2023-02-23T16:36:14.081Z,42.27
2023-02-23T16:38:56.631Z,41.20
2023-02-23T16:41:23.738Z,35.17
2023-02-23T16:43:51.478Z,40.10
2023-02-23T16:46:18.518Z,37.77
2023-02-23T16:48:44.993Z,36.53
2023-02-23T16:51:15.757Z,35.97
2023-02-23T16:53:42.915Z,36.00
2023-02-23T16:56:13.373Z,36.47
2023-02-23T16:58:41.355Z,38.87
2023-02-23T17:01:07.684Z,38.13
2023-02-23T17:03:36.019Z,40.53
2023-02-23T17:06:04.760Z,38.10
2023-02-23T17:08:31.712Z,35.33
2023-02-23T17:10:58.040Z,40.43
2023-02-23T17:16:52.911Z,107.60
2023-02-23T17:19:20.152Z,52.00
2023-02-23T17:21:46.844Z,38.93
2023-02-23T17:24:13.205Z,38.20
2023-02-23T17:26:39.675Z,36.93
2023-02-23T17:29:06.026Z,36.03
2023-02-23T17:31:32.734Z,39.33
2023-02-23T17:33:59.676Z,34.73
2023-02-23T17:36:27.482Z,35.70
2023-02-23T17:38:58.483Z,36.77
2023-02-23T17:41:25.735Z,37.03
2023-02-23T17:43:52.009Z,38.83
2023-02-23T17:46:18.966Z,40.57
2023-02-23T17:48:47.143Z,37.90
2023-02-23T17:51:16.129Z,39.67
2023-02-23T17:53:42.829Z,38.50
2023-02-23T17:56:10.111Z,41.63
2023-02-23T17:58:36.978Z,39.03
2023-02-23T18:01:04.752Z,38.73
2023-02-23T18:03:32.273Z,40.27
2023-02-23T18:05:59.668Z,38.70
2023-02-23T18:08:26.183Z,39.77
2023-02-23T18:10:53.372Z,41.33
2023-02-23T18:13:20.069Z,39.07
2023-02-23T18:15:50.184Z,35.57
2023-02-23T18:18:16.732Z,35.37
2023-02-23T18:20:50.480Z,38.10
2023-02-23T18:23:17.143Z,40.67
2023-02-23T18:25:43.420Z,37.10
2023-02-23T18:28:12.667Z,37.27
2023-02-23T18:30:39.687Z,35.43
2023-02-23T18:33:06.738Z,36.63
2023-02-23T18:35:37.742Z,37.17
2023-02-23T18:38:05.166Z,36.43
2023-02-23T18:40:32.239Z,45.23
2023-02-23T18:42:59.393Z,56.73
2023-02-23T18:45:27.022Z,35.60
2023-02-23T18:47:53.940Z,34.67
2023-02-23T18:50:20.383Z,34.20
2023-02-23T18:52:51.072Z,37.70
2023-02-23T18:55:18.080Z,36.40
2023-02-23T18:57:44.427Z,36.83
2023-02-23T19:00:13.416Z,36.60
2023-02-23T19:02:40.495Z,35.63
2023-02-23T19:05:07.737Z,35.87
2023-02-23T19:07:34.738Z,34.20
2023-02-23T19:10:01.926Z,36.93
2023-02-23T19:12:28.874Z,35.40
2023-02-23T19:14:57.458Z,38.27
2023-02-23T19:17:27.341Z,36.50
2023-02-23T19:19:56.401Z,35.50
2023-02-23T19:22:23.004Z,37.47
2023-02-23T19:24:51.665Z,36.67
2023-02-23T19:27:18.157Z,34.13
2023-02-23T19:29:45.496Z,33.47
2023-02-23T19:32:15.213Z,34.43
2023-02-23T19:34:42.350Z,32.17
2023-02-23T19:37:09.076Z,45.80
2023-02-23T19:39:35.667Z,54.93
2023-02-23T19:42:02.052Z,34.63
2023-02-23T19:44:29.617Z,37.40
2023-02-23T19:46:57.017Z,35.37
2023-02-23T19:49:23.840Z,32.93
2023-02-23T19:51:52.752Z,35.00
2023-02-23T19:54:21.261Z,33.97
2023-02-23T19:56:49.822Z,37.17
2023-02-23T19:59:16.164Z,35.53
2023-02-23T20:01:44.937Z,35.77
2023-02-23T20:04:11.399Z,31.37
2023-02-23T20:06:44.803Z,35.30
2023-02-23T20:09:11.310Z,36.37
2023-02-23T20:11:37.610Z,32.93
2023-02-23T20:14:07.361Z,34.50
2023-02-23T20:16:34.358Z,217.20
2023-02-23T20:19:00.869Z,38.50
2023-02-23T20:21:29.714Z,33.10
2023-02-23T20:23:56.054Z,29.90
2023-02-23T20:26:23.710Z,29.87
2023-02-23T20:28:51.087Z,29.77
2023-02-23T20:31:20.958Z,27.20
2023-02-23T20:33:50.193Z,29.20
2023-02-23T20:36:17.023Z,27.63
2023-02-23T20:38:43.461Z,24.23
2023-02-23T20:41:09.901Z,24.07
2023-02-23T20:43:36.981Z,23.10
2023-02-23T20:46:03.543Z,22.27
2023-02-23T20:48:30.690Z,20.10
2023-02-23T20:50:57.976Z,20.90
2023-02-23T20:53:25.094Z,19.40
2023-02-23T20:55:51.797Z,21.53
2023-02-23T20:58:24.851Z,18.63
2023-02-23T21:00:56.519Z,19.30
2023-02-23T21:03:26.253Z,21.37
2023-02-23T21:05:52.901Z,20.83
2023-02-23T21:08:19.530Z,19.13
2023-02-23T21:10:45.992Z,19.80
2023-02-23T21:13:13.465Z,19.43
2023-02-23T21:15:40.368Z,20.50
2023-02-23T21:18:07.124Z,19.40
2023-02-23T21:20:33.505Z,20.00
2023-02-23T21:23:00.512Z,18.83
2023-02-23T21:25:27.184Z,20.57
2023-02-23T21:27:54.287Z,17.03
2023-02-23T21:30:21.644Z,16.60
2023-02-23T21:32:48.775Z,18.20
2023-02-23T21:35:15.519Z,15.97
2023-02-23T21:37:42.171Z,19.77
2023-02-23T21:40:10.343Z,18.53
2023-02-23T21:42:37.704Z,17.23
2023-02-23T21:45:04.262Z,17.10
2023-02-23T21:47:33.805Z,15.87
2023-02-23T21:50:00.091Z,19.07
2023-02-23T21:52:26.695Z,15.43
2023-02-23T21:54:53.167Z,18.30
2023-02-23T21:57:22.630Z,16.37
2023-02-23T21:59:49.263Z,17.87
2023-02-23T22:02:15.688Z,16.00
2023-02-23T22:04:42.050Z,18.10
2023-02-23T22:07:08.750Z,18.37
2023-02-23T22:09:35.465Z,20.57
2023-02-23T22:12:01.718Z,19.17
2023-02-23T22:14:27.946Z,17.80
2023-02-23T22:16:54.419Z,19.60
2023-02-23T22:19:20.991Z,19.60
2023-02-23T22:21:50.494Z,18.83
2023-02-23T22:24:17.424Z,21.87
2023-02-23T22:26:54.496Z,20.17
2023-02-23T22:29:22.008Z,18.93
2023-02-23T22:31:48.553Z,18.67
2023-02-23T22:34:15.196Z,20.43
2023-02-23T22:36:41.594Z,18.33
2023-02-23T22:39:13.135Z,20.83
2023-02-23T22:41:42.220Z,19.97
2023-02-23T22:44:09.679Z,21.00
2023-02-23T22:46:35.937Z,16.20
2023-02-23T22:49:02.207Z,17.97
2023-02-23T22:51:28.503Z,20.33
2023-02-23T22:53:54.805Z,22.03
2023-02-23T22:56:21.052Z,19.53
2023-02-23T22:58:49.666Z,22.47
2023-02-23T23:01:17.487Z,22.40
2023-02-23T23:03:47.913Z,21.17
2023-02-23T23:06:21.833Z,22.57
2023-02-23T23:08:49.368Z,21.27
2023-02-23T23:11:18.664Z,21.77
2023-02-23T23:13:49.930Z,24.27
2023-02-23T23:16:30.559Z,23.93
2023-02-23T23:19:02.357Z,27.40
2023-02-23T23:21:29.884Z,23.67
2023-02-23T23:23:57.560Z,25.90
2023-02-23T23:26:25.600Z,26.40
2023-02-23T23:28:55.953Z,26.77
2023-02-23T23:31:27.855Z,29.83
2023-02-23T23:33:55.712Z,28.63
2023-02-23T23:36:25.825Z,26.07
2023-02-23T23:38:52.928Z,29.50
2023-02-23T23:41:24.454Z,26.37
2023-02-23T23:43:56.072Z,24.13
2023-02-23T23:46:26.855Z,47.93
2023-02-23T23:48:54.332Z,24.80
2023-02-23T23:51:24.292Z,28.87
2023-02-23T23:53:54.799Z,25.07
2023-02-23T23:56:21.203Z,29.83
2023-02-23T23:58:51.146Z,31.43
